Overview Statistics Trail Chart Weather Telemetry Raw packets
 

This is the latest recevied weather packets stored in our database for station/object KO6HRZ. If no packets are shown the sender has not sent any weather packets the latest 10 day(s).

<< 52 53 54 55 56 57 58 >>
Time Temp. Humidity Pressure Rain* Wind** Luminosity Snow
1787864791 35° C 36% 1011.6 hPa 0 mm - 323 W/m² -
1787864191 35° C 32% 1011.8 hPa 0 mm - 351 W/m² -
1787863589 34.44° C 31% 1011.8 hPa 0 mm - 366 W/m² -
1787862987 35° C 31% 1011.8 hPa 0 mm - 301 W/m² -
1787862382 35.56° C 31% 1011.7 hPa 0 mm - 437 W/m² -
1787861777 35° C 31% 1011.6 hPa 0 mm - 649 W/m² -
1787861177 34.44° C 31% 1011.6 hPa 0 mm - 358 W/m² -
1787860576 35° C 31% 1011.5 hPa 0 mm - 746 W/m² -
1787859972 35° C 32% 1011.8 hPa 0 mm - 338 W/m² -
1787859367 35° C 32% 1012 hPa 0 mm - 690 W/m² -
1787858765 34.44° C 32% 1012 hPa 0 mm - 418 W/m² -
1787858160 34.44° C 32% 1012.1 hPa 0 mm - 724 W/m² -
1787857558 35.56° C 31% 1012.1 hPa 0 mm - 782 W/m² -
1787856955 33.89° C 34% 1011.7 hPa 0 mm - 797 W/m² -
1787856351 33.89° C 36% 1012.1 hPa 0 mm - 722 W/m² -
1787855746 32.78° C 38% 1012 hPa 0 mm - 620 W/m² -
1787855143 32.78° C 39% 1012.3 hPa 0 mm - 585 W/m² -
1787854537 32.78° C 39% 1012.4 hPa 0 mm - 574 W/m² -
1787853938 31.67° C 42% 1012.1 hPa 0 mm - 585 W/m² -
1787853337 31.11° C 43% 1012.1 hPa 0 mm - 599 W/m² -
1787852732 30° C 43% 1011.9 hPa 0 mm - 383 W/m² -
1787852131 31.11° C 42% 1011.9 hPa 0 mm - 670 W/m² -
1787851526 30.56° C 42% 1011.9 hPa 0 mm - 515 W/m² -
1787850922 29.44° C 46% 1011.9 hPa 0 mm - 477 W/m² -
1787850319 28.89° C 48% 1011.6 hPa 0 mm - 441 W/m² -

* Rain latest hour (hover to see other rain measurements)
** Current wind speed in m/s (hover to see current wind gust speed)